Latest Coastal Weather Observations for Kiama

IDN60701

Issued at 10:21 pm EST Thursday 5 May 2016 (issued every 10 minutes, with the page automatically refreshed every 10 minutes)

About coastal observations | Map of coastal stations | Coastal observations for NSW | Marine services | Other Formats
Station Details ID: 068242 Name: KIAMA (BOMBO HEADLAND) Lat: -34.65 Lon: 150.86 Height: 15.5 m
Data from the previous 72 hours. | See also: Recent months at Kiama
Date/Time
EST
Temp

°C
Wind Pressure Rain
since 9am
mm
Weather Cloud Vis
km
Sea
Height
m
Swell
Dir
 
Speed
knots
Gust
knots
hPa Trend Height
m
Period
s
Dir
05/10:00pm 16.8 NNW 4 6 - - 0.0 - - - - - - -
05/09:30pm 16.8 NW 6 7 - - 0.0 - - - - - - -
05/09:00pm 16.5 NW 4 5 - - 0.0 - - - - - - -
05/08:30pm 16.4 WNW 4 6 - - 0.0 - - - - - - -
05/08:00pm 16.4 WNW 3 4 - - 0.0 - - - - - - -
05/07:30pm 17.1 NW 5 6 - - 0.0 - - - - - - -
05/07:00pm 17.3 NW 5 7 - - 0.0 - - - - - - -
05/06:30pm 18.0 NNW 4 7 - - 0.0 - - - - - - -
05/06:00pm 18.5 NNW 3 8 - - 0.0 - - - - - - -
05/05:30pm 19.2 N 9 13 - - 0.0 - - - - - - -
05/05:00pm 19.4 NNE 6 9 - - 0.0 - - - - - - -
05/04:30pm 20.0 NNE 6 9 - - 0.0 - - - - - - -
05/04:00pm 20.6 NNE 5 7 - - 0.0 - - - - - - -
05/03:30pm 21.0 NNE 5 6 - - 0.0 - - - - - - -
05/03:00pm 21.3 NE 4 6 - - 0.0 - - - - - - -
05/02:30pm 20.7 ENE 3 4 - - 0.0 - - - - - - -
05/02:00pm 20.4 E 3 4 - - 0.0 - - - - - - -
05/01:30pm 21.4 NE 4 6 - - 0.0 - - - - - - -
05/01:00pm 21.2 NE 4 6 - - 0.0 - - - - - - -
05/12:30pm 21.1 ENE 4 7 - - 0.0 - - - - - - -
05/12:00pm 21.2 NE 4 6 - - 0.0 - - - - - - -
05/11:30am 20.4 NE 5 7 - - 0.0 - - - - - - -
05/11:00am 20.2 NE 6 7 - - 0.0 - - - - - - -
05/10:30am 19.8 NE 4 5 - - 0.0 - - - - - - -
05/10:00am 19.6 NE 3 4 - - 0.0 - - - - - - -
05/09:30am 19.4 NNW 3 4 - - 0.0 - - - - - - -
05/09:00am 18.9 NNW 1 2 - - 0.0 - - - - - - -
05/08:30am 17.3 CALM 0 2 - - 0.0 - - - - - - -
05/08:00am 16.5 NNW 2 2 - - 0.0 - - - - - - -
05/07:30am 14.9 NW 4 6 - - 0.0 - - - - - - -
05/07:00am 14.4 W 4 6 - - 0.0 - - - - - - -
05/06:30am 13.4 NNW 5 7 - - 0.0 - - - - - - -
05/06:00am 13.3 SSW 3 7 - - 0.0 - - - - - - -
05/05:30am 15.6 WNW 6 11 - - 0.0 - - - - - - -
05/05:00am 15.6 W 9 12 - - 0.0 - - - - - - -
05/04:30am 15.9 WNW 7 11 - - 0.0 - - - - - - -
05/04:00am 15.7 W 7 11 - - 0.0 - - - - - - -
05/03:30am 15.2 W 6 8 - - 0.0 - - - - - - -
05/03:00am 15.2 W 5 8 - - 0.0 - - - - - - -
05/02:30am 15.6 W 8 11 - - 0.0 - - - - - - -
05/02:00am 15.8 W 7 10 - - 0.0 - - - - - - -
05/01:30am 15.8 W 8 11 - - 0.0 - - - - - - -
05/01:00am 15.1 W 6 8 - - 0.0 - - - - - - -
05/12:30am 15.5 W 6 8 - - 0.0 - - - - - - -
05/12:00am 15.7 W 7 9 - - 0.0 - - - - - - -
 
Date/Time
EST
Temp

°C
Wind Pressure Rain
since 9am
mm
Weather Cloud Vis
km
Sea
Height
m
Swell
Dir
 
Speed
knots
Gust
knots
hPa Trend Height
m
Period
s
Dir
04/11:30pm 15.5 W 6 7 - - 0.0 - - - - - - -
04/11:00pm 15.8 WNW 5 6 - - 0.0 - - - - - - -
04/10:30pm 15.5 W 4 5 - - 0.0 - - - - - - -
04/10:00pm 16.2 WNW 5 7 - - 0.0 - - - - - - -
04/09:30pm 16.4 WNW 5 6 - - 0.0 - - - - - - -
04/09:00pm 16.6 W 4 5 - - 0.0 - - - - - - -
04/08:30pm 16.9 W 5 6 - - 0.0 - - - - - - -
04/08:00pm 17.4 WSW 6 8 - - 0.0 - - - - - - -
04/07:30pm 17.9 SW 4 6 - - 0.0 - - - - - - -
04/07:00pm 18.5 SSW 7 9 - - 0.0 - - - - - - -
04/06:30pm 18.9 SSW 8 12 - - 0.0 - - - - - - -
04/06:00pm 18.9 S 10 13 - - 0.0 - - - - - - -
04/05:30pm 18.9 SSW 12 15 - - 0.0 - - - - - - -
04/05:00pm 19.1 S 11 14 - - 0.0 - - - - - - -
04/04:30pm 19.1 S 12 16 - - 0.0 - - - - - - -
04/04:00pm 19.2 S 15 19 - - 0.0 - - - - - - -
04/03:30pm 19.1 S 15 19 - - 0.0 - - - - - - -
04/03:00pm 19.3 S 16 20 - - 0.0 - - - - - - -
04/02:30pm 19.6 S 15 19 - - 0.0 - - - - - - -
04/02:00pm 19.8 S 16 20 - - 0.0 - - - - - - -
04/01:30pm 20.0 S 16 20 - - 0.0 - - - - - - -
04/01:00pm 20.0 S 14 19 - - 0.0 - - - - - - -
04/12:30pm 20.3 S 12 17 - - 0.0 - - - - - - -
04/12:00pm 21.6 SW 8 14 - - 0.0 - - - - - - -
04/11:30am 22.7 WSW 8 14 - - 0.0 - - - - - - -
04/11:00am 21.9 WSW 7 13 - - 0.0 - - - - - - -
04/10:30am 21.2 SW 12 18 - - 0.0 - - - - - - -
04/10:00am 21.4 W 7 11 - - 0.0 - - - - - - -
04/09:30am 20.7 WNW 8 13 - - 0.0 - - - - - - -
04/09:00am 20.0 WNW 8 13 - - 0.0 - - - - - - -
04/08:30am 19.2 NW 6 8 - - 0.0 - - - - - - -
04/08:00am 18.1 WNW 4 8 - - 0.0 - - - - - - -
04/07:30am 15.7 W 3 4 - - 0.0 - - - - - - -
04/07:00am 14.0 NW 3 5 - - 0.0 - - - - - - -
04/06:30am 14.0 NNW 5 6 - - 0.0 - - - - - - -
04/06:00am 13.4 SSW 1 3 - - 0.0 - - - - - - -
04/05:30am 14.3 WNW 3 5 - - 0.0 - - - - - - -
04/05:00am 14.1 WNW 2 3 - - 0.0 - - - - - - -
04/04:30am 15.1 NW 6 9 - - 0.0 - - - - - - -
04/04:00am 15.6 NW 7 9 - - 0.0 - - - - - - -
04/03:30am 16.4 NNW 7 11 - - 0.0 - - - - - - -
04/03:00am 16.1 NNW 6 9 - - 0.0 - - - - - - -
04/02:30am 16.3 N 6 9 - - 0.0 - - - - - - -
04/02:00am 16.7 NNW 6 9 - - 0.0 - - - - - - -
04/01:30am 17.7 N 6 9 - - 0.0 - - - - - - -
04/01:00am 17.8 NNW 6 9 - - 0.0 - - - - - - -
04/12:30am 17.9 NNW 6 9 - - 0.0 - - - - - - -
04/12:00am 17.4 NNW 5 7 - - 0.0 - - - - - - -
 
Date/Time
EST
Temp

°C
Wind Pressure Rain
since 9am
mm
Weather Cloud Vis
km
Sea
Height
m
Swell
Dir
 
Speed
knots
Gust
knots
hPa Trend Height
m
Period
s
Dir
03/11:30pm 18.0 NNW 5 7 - - 0.0 - - - - - - -
03/11:00pm 18.2 NW 5 8 - - 0.0 - - - - - - -
03/10:30pm 17.6 NNW 4 8 - - 0.0 - - - - - - -
03/10:00pm 16.8 WNW 3 7 - - 0.0 - - - - - - -
03/09:30pm 18.0 NNW 3 5 - - 0.0 - - - - - - -
03/09:00pm 18.5 N 4 7 - - 0.0 - - - - - - -
03/08:30pm 19.3 NNW 6 10 - - 0.0 - - - - - - -
03/08:00pm 19.0 NW 5 7 - - 0.0 - - - - - - -
03/07:30pm 19.4 NNW 6 12 - - 0.0 - - - - - - -
03/07:00pm 19.7 NNW 5 10 - - 0.0 - - - - - - -
03/06:30pm 19.9 NNW 6 10 - - 0.0 - - - - - - -
03/06:00pm 20.8 WNW 7 11 - - 0.0 - - - - - - -
03/05:30pm 21.3 NW 8 14 - - 0.0 - - - - - - -
03/05:00pm 22.1 WNW 11 18 - - 0.0 - - - - - - -
03/04:30pm 23.2 NW 8 14 - - 0.0 - - - - - - -
03/04:00pm 24.0 NNW 6 11 - - 0.0 - - - - - - -
03/03:30pm 24.6 NW 7 12 - - 0.0 - - - - - - -
03/03:00pm 24.6 NW 8 16 - - 0.0 - - - - - - -
03/02:30pm 24.9 NW 8 12 - - 0.0 - - - - - - -
03/02:00pm 24.6 NW 11 19 - - 0.0 - - - - - - -
03/01:30pm 24.5 NW 8 13 - - 0.0 - - - - - - -
03/01:00pm 24.2 NW 8 17 - - 0.0 - - - - - - -
03/12:30pm 23.8 NNW 10 17 - - 0.0 - - - - - - -
03/12:00pm 23.1 NW 10 15 - - 0.0 - - - - - - -
03/11:30am 22.6 NNW 10 17 - - 0.0 - - - - - - -
03/11:00am 22.3 NNW 10 16 - - 0.0 - - - - - - -
03/10:30am 21.5 NW 10 17 - - 0.0 - - - - - - -
03/10:00am 20.8 NNW 10 17 - - 0.0 - - - - - - -
03/09:30am 20.5 N 7 11 - - 0.0 - - - - - - -
03/09:00am 19.5 NW 5 9 - - 0.0 - - - - - - -
03/08:30am 18.6 NW 2 3 - - 0.0 - - - - - - -
03/08:00am 16.8 N 4 6 - - 0.0 - - - - - - -
03/07:30am 15.8 N 1 4 - - 0.0 - - - - - - -
03/07:00am 13.9 N 6 7 - - 0.0 - - - - - - -
03/06:30am 13.5 N 5 7 - - 0.0 - - - - - - -
03/06:00am 13.8 NNW 4 6 - - 0.0 - - - - - - -
03/05:30am 14.8 N 5 8 - - 0.0 - - - - - - -
03/05:00am 14.6 N 5 8 - - 0.0 - - - - - - -
03/04:30am 13.6 N 5 6 - - 0.0 - - - - - - -
03/04:00am 13.7 NW 3 4 - - 0.0 - - - - - - -
03/03:30am 13.2 N 3 5 - - 0.0 - - - - - - -
03/03:00am 14.4 NW 2 6 - - 0.0 - - - - - - -
03/02:30am 13.0 WSW 1 3 - - 0.0 - - - - - - -
03/02:00am 12.7 SW 2 3 - - 0.0 - - - - - - -
03/01:30am 13.1 W 1 3 - - 0.0 - - - - - - -
03/01:00am 13.5 NW 2 3 - - 0.0 - - - - - - -
03/12:30am 13.1 SW 4 5 - - 0.0 - - - - - - -
03/12:00am 12.4 WSW 6 7 - - 0.0 - - - - - - -
 
Date/Time
EST
Temp

°C
Wind Pressure Rain
since 9am
mm
Weather Cloud Vis
km
Sea
Height
m
Swell
Dir
 
Speed
knots
Gust
knots
hPa Trend Height
m
Period
s
Dir
02/11:30pm 13.4 WNW 4 6 - - 0.0 - - - - - - -
02/11:00pm 14.2 WNW 5 7 - - 0.0 - - - - - - -
02/10:30pm 14.6 NW 5 7 - - 0.0 - - - - - - -

Other Formats:

Comma delimited format used in spreadsheet applications
http://www.bom.gov.au/fwo/IDN60701/IDN60701.95749.axf

JavaScript Object Notation format (JSON) in row-major order
http://www.bom.gov.au/fwo/IDN60701/IDN60701.95749.json